Meteo Giornale » Osservazioni meteo Stati Uniti (USA) » Orange Grove
ore: 00:56 - Osservazioni Meteo Orange Grove
Lat. 27° 53' N Lon. 98° 2' W Alt. 78 metri s.l.m.
28 °C
Sereno
Temp. 24 Ore
25 °C
38 °C
Sud/Sud-Est
14.8 Km/h
Dew point 24 °C
Umidità 78 %
Visibilità 10 Km
Il sole sorge alle ore 07:10
Il sole tramonta alle ore 19:53
| Data e Ora | Cielo e Fenomeni | T °C | DP °C | Um. % | Pres. hPa | Vis. km | Vento km/h | |
|---|---|---|---|---|---|---|---|---|
| Oggi h: 00:56 | Sereno | 28 | 24 | 78 | 1015 | 10 | S/SE 14.8 | |
| Ieri h: 23:56 | Poco Nuvoloso | 28 | 24 | 78 | 1015 | 10 | S/SE 18.5 | |
| Ieri h: 22:56 | Poco Nuvoloso | 28 | 24 | 78 | 1015 | 10 | SE 22.2 | |
| Ieri h: 21:56 | Sereno | 29 | 23 | 70 | 1015 | 10 | E/SE 16.7 | |
| Ieri h: 20:56 | Sereno | 29 | 22 | 66 | 1014 | 10 | SE 20.3 | |
| Ieri h: 19:56 | Sereno | 31 | 21 | 55 | 1013 | 10 | E/SE 24 | |
| Ieri h: 18:56 | Sereno | 34 | 19 | 41 | 1012 | 10 | E/SE 35.2 | |
| Ieri h: 17:56 | Sereno | 36 | 18 | 34 | 1012 | 10 | E/SE 29.6 | |
| Ieri h: 15:56 | Poco Nuvoloso | 38 | 20 | 35 | 1012 | 10 | E/SE 24 | |
| Ieri h: 14:56 | Sereno | 38 | 19 | 33 | 1013 | 10 | N 0 | |
| Ieri h: 12:56 | Sereno | 36 | 20 | 39 | 1015 | 0 | N 0 | |
| Ieri h: 11:56 | Sereno | 34 | 21 | 46 | 1016 | 0 | S 13 | |
| Ieri h: 10:56 | Sereno | 33 | 22 | 52 | 1016 | 0 | S/SE 16.7 | |
| Ieri h: 09:56 | Sereno | 31 | 23 | 62 | 1015 | 0 | S/SE 20.3 | |
| Ieri h: 08:56 | Sereno | 29 | 25 | 79 | 1015 | 0 | SE 14.8 | |
| Ieri h: 07:56 | Sereno | 26 | 24 | 88 | 1015 | 0 | E/NE 9.3 | |
| Ieri h: 06:56 | Sereno | 25 | 24 | 94 | 1014 | 0 | E/SE 9.3 | |
| Ieri h: 05:56 | Sereno | 25 | 24 | 94 | 1014 | 0 | SE 9.3 | |
| Ieri h: 04:56 | Sereno | 26 | 24 | 88 | 1014 | 0 | SE 9.3 | |
| Ieri h: 03:56 | Nuvoloso | 27 | 24 | 83 | 1014 | 0 | SE 13 | |
| Ieri h: 03:45 | Nuvoloso | 27 | 24 | 83 | 1015 | 0 | SE 11.1 | |
| Ieri h: 02:31 | Molto Nuvoloso | 27 | 24 | 83 | 1015 | 0 | E/SE 9.3 | |
| Ieri h: 01:56 | Sereno | 27 | 24 | 83 | 1015 | 0 | SE 13 | |



